Time;durP1;ratioP1;P1;durP2;ratioP2;P2;SDS_P1;SDS_P2;PMS_P1;PMS_P2;Temp;Humidity;BMP_temperature;BMP_pressure;BME280_temperature;BME280_humidity;BME280_pressure;Samples;Min_cycle;Max_cycle;Signal;HPM_P1;HPM_P2
2023/11/18 00:00:27;;;;;;;0.60;0.60;;;;;;;5.19;50.92;92909.53;4939304;29;20126;-78
2023/11/18 00:02:52;;;;;;;0.40;0.40;;;;;;;5.38;49.70;92914.41;4923172;29;20488;-77
2023/11/18 00:05:18;;;;;;;0.98;0.50;;;;;;;5.40;49.89;92909.75;4936019;29;20040;-78
2023/11/18 00:07:44;;;;;;;0.40;0.40;;;;;;;5.50;49.29;92909.88;4934480;29;20031;-78
2023/11/18 00:10:10;;;;;;;0.50;0.50;;;;;;;5.56;48.78;92903.72;4937397;29;20094;-78
2023/11/18 00:12:36;;;;;;;0.45;0.45;;;;;;;5.64;48.04;92918.06;4935210;29;20050;-78
2023/11/18 00:15:03;;;;;;;0.40;0.40;;;;;;;5.66;48.47;92915.22;4937597;29;20059;-78
2023/11/18 00:17:32;;;;;;;0.50;0.50;;;;;;;5.65;48.34;92901.44;4926915;29;20040;-78
2023/11/18 00:19:57;;;;;;;0.52;0.52;;;;;;;5.73;47.80;92908.00;4937150;29;20046;-77
2023/11/18 00:22:23;;;;;;;0.40;0.40;;;;;;;5.72;48.07;92901.22;4936204;29;20028;-79
2023/11/18 00:24:49;;;;;;;0.50;0.50;;;;;;;5.77;47.07;92898.72;4938306;29;20096;-79
2023/11/18 00:27:15;;;;;;;0.38;0.38;;;;;;;5.80;47.01;92898.19;4933871;29;20527;-77
2023/11/18 00:29:43;;;;;;;0.40;0.40;;;;;;;5.81;46.73;92897.97;4948488;29;20044;-79
2023/11/18 00:32:09;;;;;;;0.40;0.40;;;;;;;5.76;46.96;92897.13;4918343;29;20036;-79
2023/11/18 00:34:35;;;;;;;0.65;0.60;;;;;;;5.82;46.33;92896.16;4937195;29;20404;-79
2023/11/18 00:37:01;;;;;;;0.40;0.40;;;;;;;5.86;46.58;92891.25;4937849;29;20024;-80
2023/11/18 00:39:27;;;;;;;0.47;0.47;;;;;;;5.86;45.95;92886.06;4937720;29;20044;-79
2023/11/18 00:41:53;;;;;;;0.50;0.50;;;;;;;5.84;46.37;92892.28;4936491;29;20043;-79
2023/11/18 00:44:19;;;;;;;0.43;0.43;;;;;;;5.81;46.18;92897.97;4936738;29;20083;-80
2023/11/18 00:46:45;;;;;;;0.40;0.40;;;;;;;5.81;46.17;92889.41;4935394;29;20091;-80
2023/11/18 00:49:13;;;;;;;0.50;0.50;;;;;;;5.83;45.55;92892.50;4936641;29;20055;-79
2023/11/18 00:51:41;;;;;;;0.38;0.38;;;;;;;5.81;45.62;92899.78;4936651;29;20067;-77
2023/11/18 00:54:07;;;;;;;0.47;0.47;;;;;;;5.79;47.41;92896.66;4937045;29;20415;-79
2023/11/18 00:56:33;;;;;;;0.55;0.55;;;;;;;5.75;48.57;92895.56;4936363;29;20488;-77
2023/11/18 00:58:58;;;;;;;0.40;0.40;;;;;;;5.77;49.04;92903.91;4936591;29;20102;-79
2023/11/18 01:01:24;;;;;;;0.50;0.50;;;;;;;5.75;49.82;92900.75;4935457;29;20042;-79
2023/11/18 01:03:50;;;;;;;0.50;0.50;;;;;;;5.68;49.73;92915.75;4936476;29;20040;-79
2023/11/18 01:06:16;;;;;;;0.50;0.50;;;;;;;5.62;49.64;92910.50;4936120;29;20040;-78
2023/11/18 01:08:47;;;;;;;0.50;0.50;;;;;;;5.60;48.53;92914.38;4934165;29;20031;-78
2023/11/18 01:11:20;;;;;;;0.60;0.60;;;;;;;5.67;47.37;92927.94;4936317;29;20046;-78
2023/11/18 01:13:46;;;;;;;0.50;0.50;;;;;;;5.64;47.25;92918.84;4934849;29;20082;-79
2023/11/18 01:16:13;;;;;;;0.40;0.40;;;;;;;5.61;46.58;92927.13;4934794;29;20420;-79
2023/11/18 01:18:39;;;;;;;0.52;0.52;;;;;;;5.67;45.79;92924.56;4937725;29;20361;-79
2023/11/18 01:21:05;;;;;;;0.40;0.40;;;;;;;5.70;46.79;92929.28;4936832;29;20107;-79
2023/11/18 01:23:32;;;;;;;0.40;0.40;;;;;;;5.69;47.06;92938.09;4919498;29;20035;-79
2023/11/18 01:25:58;;;;;;;0.47;0.47;;;;;;;5.71;46.18;92936.03;4924251;29;20044;-79
2023/11/18 01:28:26;;;;;;;0.50;0.50;;;;;;;5.72;45.49;92945.41;4925190;29;20415;-77
2023/11/18 01:30:52;;;;;;;0.40;0.40;;;;;;;5.72;45.50;92945.41;4935151;29;20078;-77
2023/11/18 01:33:18;;;;;;;0.32;0.32;;;;;;;5.78;45.09;92939.22;4935185;29;20461;-79
2023/11/18 01:35:43;;;;;;;0.43;0.43;;;;;;;5.79;45.31;92940.81;4935424;29;20036;-78
2023/11/18 01:38:11;;;;;;;0.50;0.50;;;;;;;5.78;46.51;92945.19;4917141;29;20036;-80
2023/11/18 01:40:38;;;;;;;0.40;0.40;;;;;;;5.77;46.70;92940.28;4916367;29;20070;-78
2023/11/18 01:43:11;;;;;;;0.50;0.50;;;;;;;5.74;46.50;92938.16;4923089;29;20498;-76
2023/11/18 01:45:37;;;;;;;0.55;0.50;;;;;;;5.73;46.95;92939.19;4937168;29;20067;-77
2023/11/18 01:48:02;;;;;;;0.57;0.57;;;;;;;5.82;46.71;92943.69;4935769;29;20086;-79
2023/11/18 01:50:29;;;;;;;0.63;0.63;;;;;;;5.75;47.17;92948.31;4935818;29;20055;-79
2023/11/18 01:52:55;;;;;;;1.05;0.50;;;;;;;5.79;47.11;92943.41;4934323;29;20395;-79
2023/11/18 01:55:21;;;;;;;0.60;0.60;;;;;;;5.81;46.92;92960.31;4934818;29;20044;-78
2023/11/18 01:57:47;;;;;;;0.40;0.40;;;;;;;5.78;47.44;92953.00;4934929;29;20071;-79
2023/11/18 02:00:13;;;;;;;0.60;0.60;;;;;;;5.73;47.04;92962.56;4934549;29;20456;-79
2023/11/18 02:02:39;;;;;;;0.50;0.50;;;;;;;5.77;47.08;92956.63;4936076;29;20027;-78
2023/11/18 02:05:06;;;;;;;0.40;0.40;;;;;;;5.83;46.88;92960.06;4917898;29;20075;-77
2023/11/18 02:07:33;;;;;;;0.55;0.55;;;;;;;5.76;47.21;92964.66;4933067;29;20338;-77
2023/11/18 02:10:00;;;;;;;0.50;0.50;;;;;;;5.76;47.41;92962.06;4934131;29;20522;-78
2023/11/18 02:12:41;;;;;;;0.60;0.60;;;;;;;5.78;47.42;92962.59;4933747;29;20024;-77
2023/11/18 02:15:09;;;;;;;0.57;0.50;;;;;;;5.71;47.49;92962.03;4934186;29;20095;-78
2023/11/18 02:17:38;;;;;;;0.50;0.50;;;;;;;5.66;47.56;92964.56;4933577;29;20089;-77
2023/11/18 02:20:13;;;;;;;0.45;0.45;;;;;;;5.61;47.61;92968.69;4933789;29;20031;-78
2023/11/18 02:22:48;;;;;;;0.60;0.60;;;;;;;5.63;47.79;92965.84;4933550;29;20360;-77
2023/11/18 02:25:18;;;;;;;0.57;0.57;;;;;;;5.63;48.06;92978.84;4924743;29;20032;-78
2023/11/18 02:27:45;;;;;;;0.50;0.50;;;;;;;5.61;47.89;92979.06;4933659;29;20044;-79
2023/11/18 02:30:16;;;;;;;0.60;0.60;;;;;;;5.60;47.23;92972.28;4934066;29;20055;-76
2023/11/18 02:32:59;;;;;;;0.60;0.60;;;;;;;5.59;47.04;92981.13;4913498;29;20404;-77
2023/11/18 02:35:30;;;;;;;0.60;0.60;;;;;;;5.59;47.18;92983.72;4922989;29;20380;-78
2023/11/18 02:37:58;;;;;;;0.50;0.50;;;;;;;5.71;47.24;92977.59;4937096;29;20039;-77
2023/11/18 02:40:32;;;;;;;0.68;0.68;;;;;;;5.62;47.78;92985.81;4939372;29;20027;-78
2023/11/18 02:43:00;;;;;;;0.60;0.60;;;;;;;5.61;47.25;92976.47;4940001;29;20043;-79
2023/11/18 02:45:27;;;;;;;0.50;0.50;;;;;;;5.68;47.43;92972.91;4940712;29;20098;-78
2023/11/18 02:47:57;;;;;;;1.10;0.70;;;;;;;5.64;47.50;92970.00;4938656;29;20031;-77
2023/11/18 02:50:24;;;;;;;0.40;0.40;;;;;;;5.57;47.57;92957.19;4939609;29;20451;-77
2023/11/18 02:52:50;;;;;;;0.60;0.60;;;;;;;5.52;47.90;92953.78;4937547;29;20068;-78
2023/11/18 02:55:16;;;;;;;0.60;0.60;;;;;;;5.50;47.85;92948.81;4938672;29;20043;-78
2023/11/18 02:57:41;;;;;;;0.50;0.50;;;;;;;5.46;47.82;92949.56;4936724;29;20036;-79
2023/11/18 03:00:21;;;;;;;0.70;0.70;;;;;;;5.37;48.36;92952.56;4938841;29;20032;-78
2023/11/18 03:02:48;;;;;;;0.40;0.40;;;;;;;5.46;47.18;92950.31;4936549;29;20071;-78
2023/11/18 03:05:15;;;;;;;0.50;0.50;;;;;;;5.51;46.40;92942.59;4936849;29;20043;-79
2023/11/18 03:07:50;;;;;;;0.60;0.60;;;;;;;5.50;46.98;92942.84;4938121;29;20031;-78
2023/11/18 03:10:22;;;;;;;0.50;0.50;;;;;;;5.51;46.88;92924.41;4935854;29;20038;-78
2023/11/18 03:12:48;;;;;;;;;;;;;;;5.45;46.81;92927.19;4938371;29;20035;-78
2023/11/18 03:15:16;;;;;;;0.50;0.50;;;;;;;5.40;46.77;92927.91;4936017;29;20014;-78
2023/11/18 03:17:48;;;;;;;0.50;0.50;;;;;;;5.43;46.51;92919.66;4935804;29;20036;-78
2023/11/18 03:20:18;;;;;;;0.82;0.60;;;;;;;5.58;45.30;92900.84;4936737;29;20358;-77
2023/11/18 03:22:45;;;;;;;0.60;0.60;;;;;;;5.49;45.45;92908.28;4936424;29;20042;-79
2023/11/18 03:25:12;;;;;;;0.40;0.40;;;;;;;5.55;44.93;92906.53;4937633;29;20016;-79
2023/11/18 03:27:38;;;;;;;0.57;0.57;;;;;;;5.63;45.22;92913.91;4936749;29;20146;-78
2023/11/18 03:30:06;;;;;;;0.60;0.60;;;;;;;5.56;45.00;92908.91;4937968;29;20075;-79
2023/11/18 03:32:32;;;;;;;0.68;0.68;;;;;;;5.48;45.68;92909.31;4937181;29;20048;-78
2023/11/18 03:34:59;;;;;;;0.47;0.47;;;;;;;5.63;44.86;92919.09;4938903;29;20046;-79
2023/11/18 03:37:26;;;;;;;0.60;0.60;;;;;;;5.74;43.65;92904.38;4936973;29;20451;-79
2023/11/18 03:39:52;;;;;;;0.68;0.60;;;;;;;5.73;43.97;92918.41;4937774;29;20095;-78
2023/11/18 03:42:18;;;;;;;0.60;0.60;;;;;;;5.74;43.30;92902.59;4936449;29;20415;-78
2023/11/18 03:44:47;;;;;;;0.47;0.45;;;;;;;5.73;42.59;92914.00;4936038;29;20028;-79
2023/11/18 03:47:14;;;;;;;0.50;0.50;;;;;;;5.62;43.28;92910.50;4934656;29;20078;-79
2023/11/18 03:49:40;;;;;;;0.80;0.80;;;;;;;5.55;44.86;92922.13;4936691;29;20031;-79
2023/11/18 03:52:07;;;;;;;0.70;0.70;;;;;;;5.51;44.25;92921.81;4929833;29;20091;-79
2023/11/18 03:54:33;;;;;;;0.70;0.70;;;;;;;5.45;44.12;92928.00;4921444;29;20076;-79
2023/11/18 03:56:59;;;;;;;0.50;0.50;;;;;;;5.50;43.03;92922.84;4923539;29;20040;-79
2023/11/18 03:59:25;;;;;;;0.55;0.55;;;;;;;5.62;41.53;92922.72;4920608;29;20047;-79
2023/11/18 04:01:51;;;;;;;0.40;0.40;;;;;;;5.68;41.80;92926.16;4937083;29;20037;-79
2023/11/18 04:04:17;;;;;;;0.50;0.50;;;;;;;5.79;41.58;92926.00;4936311;29;20050;-78
2023/11/18 04:06:44;;;;;;;0.40;0.40;;;;;;;5.88;40.77;92935.94;4937494;29;20122;-79
2023/11/18 04:09:10;;;;;;;1.15;0.50;;;;;;;5.84;40.97;92922.66;4935763;29;20038;-79
2023/11/18 04:11:36;;;;;;;0.47;0.47;;;;;;;5.97;39.65;92943.09;4938327;29;20530;-78
2023/11/18 04:14:03;;;;;;;0.50;0.50;;;;;;;5.79;41.25;92944.19;4936297;29;20342;-77
2023/11/18 04:16:29;;;;;;;0.57;0.57;;;;;;;5.79;42.26;92940.81;4918339;29;20552;-78
2023/11/18 04:18:55;;;;;;;0.60;0.60;;;;;;;5.98;40.49;92943.88;4935148;29;20129;-77
2023/11/18 04:21:21;;;;;;;0.55;0.55;;;;;;;5.94;39.34;92946.16;4928375;29;20043;-79
2023/11/18 04:23:47;;;;;;;1.17;0.90;;;;;;;5.95;39.63;92939.16;4928230;29;20504;-79
2023/11/18 04:26:13;;;;;;;0.63;0.63;;;;;;;5.79;40.34;92953.81;4937611;29;20031;-80
2023/11/18 04:28:38;;;;;;;0.40;0.40;;;;;;;5.75;39.34;92950.13;4936158;29;20054;-76
2023/11/18 04:31:07;;;;;;;0.52;0.52;;;;;;;5.79;40.01;92953.81;4935915;29;20051;-79
2023/11/18 04:33:33;;;;;;;0.60;0.60;;;;;;;5.83;40.20;92949.66;4932847;29;20085;-79
2023/11/18 04:35:59;;;;;;;1.15;0.80;;;;;;;5.59;40.98;92955.16;4937075;29;20055;-76
2023/11/18 04:38:26;;;;;;;0.60;0.55;;;;;;;5.61;39.88;92960.88;4935475;29;20039;-79
2023/11/18 04:40:55;;;;;;;2.13;1.20;;;;;;;5.46;41.38;92957.34;4934118;29;20064;-77
2023/11/18 04:43:24;;;;;;;0.50;0.50;;;;;;;5.68;39.67;92965.13;4920440;29;20055;-78
2023/11/18 04:45:50;;;;;;;0.52;0.45;;;;;;;5.57;40.18;92962.41;4927049;29;20095;-77
2023/11/18 04:48:15;;;;;;;0.75;0.70;;;;;;;5.38;41.34;92974.09;4933713;29;20062;-77
2023/11/18 04:50:42;;;;;;;0.50;0.50;;;;;;;5.38;41.10;92980.13;4933383;29;20575;-79
2023/11/18 04:53:10;;;;;;;0.80;0.80;;;;;;;5.17;42.17;92981.66;4934424;29;20095;-77
2023/11/18 04:55:36;;;;;;;0.80;0.77;;;;;;;5.07;43.47;92986.72;4934660;29;20130;-78
2023/11/18 04:58:02;;;;;;;1.00;0.90;;;;;;;4.90;45.76;92988.56;4935449;29;20127;-78
2023/11/18 05:00:28;;;;;;;0.80;0.80;;;;;;;4.74;46.08;92979.78;4934591;29;20050;-79
2023/11/18 05:02:54;;;;;;;0.60;0.60;;;;;;;4.66;45.89;92977.56;4916917;29;20073;-79
2023/11/18 05:05:21;;;;;;;0.77;0.70;;;;;;;4.53;46.85;92995.03;4933772;29;20044;-77
2023/11/18 05:07:47;;;;;;;0.50;0.50;;;;;;;4.46;45.82;92998.78;4935736;29;20110;-77
2023/11/18 05:10:12;;;;;;;0.63;0.63;;;;;;;4.37;46.46;93001.78;4935383;29;20028;-79
2023/11/18 05:12:39;;;;;;;1.35;0.60;;;;;;;4.44;44.11;93000.84;4937234;29;20055;-79
2023/11/18 05:15:07;;;;;;;0.50;0.50;;;;;;;4.52;43.88;92992.66;4936865;29;20079;-80
2023/11/18 05:17:35;;;;;;;0.50;0.50;;;;;;;4.61;43.69;92996.44;4935087;29;20187;-79
2023/11/18 05:20:02;;;;;;;0.57;0.57;;;;;;;4.64;42.58;92985.63;4935420;29;20044;-80
2023/11/18 05:22:28;;;;;;;0.60;0.60;;;;;;;4.58;43.84;92983.94;4937038;29;20067;-79
2023/11/18 05:24:54;;;;;;;0.60;0.60;;;;;;;4.57;43.85;92990.16;4937319;29;20036;-79
2023/11/18 05:27:19;;;;;;;0.40;0.40;;;;;;;4.51;43.73;92981.53;4936701;29;20063;-78
2023/11/18 05:29:48;;;;;;;0.50;0.50;;;;;;;4.53;43.42;92991.66;4935479;29;20099;-79
2023/11/18 05:32:14;;;;;;;0.98;0.52;;;;;;;4.52;44.07;92984.91;4935992;29;20080;-79
2023/11/18 05:34:39;;;;;;;3.40;0.55;;;;;;;4.79;41.24;92983.22;4934332;29;20064;-76
2023/11/18 05:37:05;;;;;;;0.60;0.60;;;;;;;4.70;42.52;92989.81;4933720;29;20118;-78
2023/11/18 05:39:31;;;;;;;0.65;0.65;;;;;;;4.50;46.21;92972.19;4933304;29;20048;-78
2023/11/18 05:41:58;;;;;;;0.60;0.60;;;;;;;4.46;44.65;92983.22;4936017;29;20444;-79
2023/11/18 05:44:30;;;;;;;0.50;0.50;;;;;;;4.40;43.54;92974.59;4934638;29;20051;-79
2023/11/18 05:46:58;;;;;;;;;;;;;;;4.36;44.42;92976.88;4931010;29;20559;-78
2023/11/18 05:49:24;;;;;;;0.55;0.55;;;;;;;4.28;45.70;92966.91;4933070;29;19950;-79
2023/11/18 05:51:51;;;;;;;0.50;0.50;;;;;;;4.18;46.58;92966.75;4935636;29;20039;-79
2023/11/18 05:54:17;;;;;;;0.50;0.50;;;;;;;4.14;44.69;92960.44;4933748;29;20035;-79
2023/11/18 05:56:43;;;;;;;0.50;0.50;;;;;;;4.07;45.42;92960.59;4934256;29;20106;-80
2023/11/18 05:59:10;;;;;;;0.40;0.40;;;;;;;4.02;46.78;92964.94;4936998;29;20114;-79
2023/11/18 06:01:37;;;;;;;0.47;0.47;;;;;;;4.03;44.83;92971.66;4939130;29;20034;-79
2023/11/18 06:04:03;;;;;;;0.40;0.40;;;;;;;4.04;44.54;92965.47;4916334;29;20047;-80
2023/11/18 06:06:31;;;;;;;0.45;0.43;;;;;;;4.04;43.55;92971.44;4932890;29;20043;-80
2023/11/18 06:08:59;;;;;;;0.60;0.60;;;;;;;4.08;42.69;92972.56;4928996;29;20051;-80
2023/11/18 06:11:24;;;;;;;0.57;0.57;;;;;;;4.16;41.53;92968.78;4935527;29;20354;-76
2023/11/18 06:13:51;;;;;;;0.30;0.30;;;;;;;4.22;40.83;92972.25;4935740;29;20074;-77
2023/11/18 06:16:26;;;;;;;0.60;0.60;;;;;;;4.26;40.71;92981.13;4935995;29;20038;-80
2023/11/18 06:18:57;;;;;;;0.40;0.40;;;;;;;4.30;39.95;92985.63;4931367;29;20067;-81
2023/11/18 06:21:28;;;;;;;0.50;0.50;;;;;;;4.37;39.36;92980.28;4938209;29;20051;-80
2023/11/18 06:23:56;;;;;;;0.45;0.43;;;;;;;4.43;38.22;92976.72;4936612;29;20067;-78
2023/11/18 06:26:26;;;;;;;0.40;0.40;;;;;;;4.49;38.18;92980.19;4944248;29;20058;-79
2023/11/18 06:28:53;;;;;;;0.50;0.50;;;;;;;4.55;37.62;92985.22;4941433;29;20050;-80
2023/11/18 06:31:23;;;;;;;0.60;0.60;;;;;;;4.60;37.19;92979.31;4957445;28;20051;-80
2023/11/18 06:33:50;;;;;;;0.40;0.40;;;;;;;4.71;36.25;92983.63;4944105;28;20117;-80
2023/11/18 06:36:19;;;;;;;0.50;0.50;;;;;;;4.74;36.27;92984.97;4938345;29;20576;-81
2023/11/18 06:38:46;;;;;;;0.60;0.60;;;;;;;4.74;36.36;92979.78;4935538;29;20047;-79
2023/11/18 06:41:13;;;;;;;0.40;0.40;;;;;;;4.77;37.39;92987.88;4939069;29;20039;-79
2023/11/18 06:46:39;;;;;;;0.40;0.40;;;;;;;4.97;33.86;92989.16;4905319;29;20064;-79
2023/11/18 06:49:10;;;;;;;0.60;0.60;;;;;;;5.43;33.52;92995.75;4929541;29;20038;-78
2023/11/18 06:51:37;;;;;;;0.60;0.60;;;;;;;6.64;33.96;92999.03;4929905;29;20043;-78
2023/11/18 06:54:13;;;;;;;0.55;0.55;;;;;;;7.74;30.72;93005.34;4935164;29;20110;-78
2023/11/18 06:56:43;;;;;;;0.60;0.60;;;;;;;8.93;28.98;93017.56;4935785;29;20492;-79
2023/11/18 06:59:12;;;;;;;0.60;0.60;;;;;;;10.00;28.79;93011.28;4937666;29;20066;-78
2023/11/18 07:01:40;;;;;;;0.50;0.50;;;;;;;10.92;27.14;93013.31;4938685;29;20061;-79
2023/11/18 07:04:09;;;;;;;1.08;0.90;;;;;;;11.76;24.06;93013.00;4937818;29;20496;-79
2023/11/18 07:06:38;;;;;;;0.68;0.60;;;;;;;11.99;24.57;93013.28;4937947;29;20036;-79
2023/11/18 07:09:17;;;;;;;0.70;0.70;;;;;;;12.22;24.91;93020.34;4940306;29;20047;-79
2023/11/18 07:11:43;;;;;;;0.70;0.70;;;;;;;13.17;23.86;93015.00;4941000;29;20519;-80
2023/11/18 07:14:10;;;;;;;0.60;0.60;;;;;;;13.87;23.13;93018.50;4939261;29;20055;-79
2023/11/18 07:16:41;;;;;;;0.60;0.60;;;;;;;14.74;22.46;93019.34;4939545;29;20599;-81
2023/11/18 07:19:07;;;;;;;0.60;0.60;;;;;;;15.47;21.00;93021.81;4938878;29;20090;-81
2023/11/18 07:21:36;;;;;;;0.70;0.65;;;;;;;16.10;21.12;93012.00;4940345;29;20055;-81
2023/11/18 07:24:04;;;;;;;0.50;0.50;;;;;;;16.63;20.42;93016.28;4941970;29;20063;-80
2023/11/18 07:26:30;;;;;;;0.40;0.40;;;;;;;16.83;19.33;93026.28;4928847;29;20035;-77
2023/11/18 07:28:56;;;;;;;0.80;0.52;;;;;;;17.35;18.82;93037.91;4928528;29;20072;-81
2023/11/18 07:31:22;;;;;;;0.40;0.40;;;;;;;17.58;19.05;93030.53;4961101;29;20059;-82
2023/11/18 07:33:49;;;;;;;0.40;0.40;;;;;;;18.19;17.73;93025.78;4936920;29;20066;-81
2023/11/18 07:36:19;;;;;;;0.30;0.30;;;;;;;18.93;17.94;93024.38;4964914;29;20531;-80
2023/11/18 07:38:46;;;;;;;0.40;0.40;;;;;;;19.35;16.76;93024.31;4931355;29;20032;-82
2023/11/18 07:41:23;;;;;;;0.47;0.40;;;;;;;18.81;16.28;93020.91;4948123;29;20035;-80
2023/11/18 07:43:51;;;;;;;0.43;0.43;;;;;;;18.47;17.85;93009.41;4944875;29;20047;-81
2023/11/18 07:46:16;;;;;;;0.45;0.45;;;;;;;19.14;17.39;93028.91;4929926;29;20348;-80
2023/11/18 07:48:42;;;;;;;0.43;0.43;;;;;;;19.13;16.72;93016.72;4951062;29;20083;-81
2023/11/18 07:51:11;;;;;;;0.40;0.40;;;;;;;19.94;15.97;93022.47;4928877;29;20253;-81
2023/11/18 07:53:38;;;;;;;0.40;0.40;;;;;;;20.64;15.90;93024.25;4927132;29;20047;-81
2023/11/18 07:56:05;;;;;;;0.40;0.40;;;;;;;20.50;16.02;93022.69;4945160;29;20031;-81
2023/11/18 07:58:31;;;;;;;0.52;0.52;;;;;;;19.97;16.12;93013.84;4924690;29;20039;-81
2023/11/18 08:00:59;;;;;;;0.20;0.20;;;;;;;21.05;16.37;93017.03;4929763;29;20039;-80
2023/11/18 08:03:24;;;;;;;0.50;0.50;;;;;;;21.62;15.01;93022.03;4962580;29;20030;-82
2023/11/18 08:05:51;;;;;;;0.50;0.50;;;;;;;21.73;14.51;93016.97;4961158;29;20477;-81
2023/11/18 08:08:16;;;;;;;0.40;0.40;;;;;;;21.94;14.68;93015.94;4963679;29;20050;-82
2023/11/18 08:10:44;;;;;;;0.68;0.68;;;;;;;22.69;13.44;93011.56;4947666;29;20043;-80
2023/11/18 08:13:10;;;;;;;0.50;0.50;;;;;;;22.18;13.77;93015.78;4945371;29;20051;-83
2023/11/18 08:15:42;;;;;;;0.50;0.50;;;;;;;23.34;14.09;93011.00;4945364;29;20110;-82
2023/11/18 08:18:10;;;;;;;0.80;0.80;;;;;;;22.61;14.80;93016.75;4963005;29;20031;-81
2023/11/18 08:20:37;;;;;;;0.60;0.60;;;;;;;23.41;14.03;93014.56;4929940;29;20051;-81
2023/11/18 08:23:04;;;;;;;0.60;0.60;;;;;;;23.97;13.37;93023.19;4945652;29;20126;-82
2023/11/18 08:25:33;;;;;;;1.23;1.00;;;;;;;23.14;14.81;93020.91;4964359;29;20039;-81
2023/11/18 08:28:00;;;;;;;0.63;0.60;;;;;;;22.94;14.30;93042.22;4931580;29;20043;-83
2023/11/18 08:30:26;;;;;;;2.70;0.60;;;;;;;21.87;13.25;93048.53;4965401;29;20059;-81
2023/11/18 08:32:52;;;;;;;0.90;0.50;;;;;;;21.87;12.57;93043.19;4963113;28;20126;-83
2023/11/18 08:35:18;;;;;;;0.40;0.40;;;;;;;21.29;14.60;93043.56;4951721;29;20550;-80
2023/11/18 08:37:45;;;;;;;0.40;0.40;;;;;;;21.20;13.92;93035.72;4938137;29;20067;-80
2023/11/18 08:40:14;;;;;;;0.25;0.25;;;;;;;20.48;14.63;93030.22;4951736;29;20501;-80
2023/11/18 08:42:49;;;;;;;0.38;0.38;;;;;;;19.55;15.11;93033.34;4936514;29;20042;-82
2023/11/18 08:45:32;;;;;;;0.30;0.30;;;;;;;19.07;16.30;93023.34;4959464;29;20039;-82
2023/11/18 08:48:01;;;;;;;1.08;0.40;;;;;;;18.68;15.58;93022.69;4956969;28;20070;-82
2023/11/18 08:50:28;;;;;;;0.20;0.20;;;;;;;18.79;15.60;93026.53;4958636;29;20031;-82
2023/11/18 08:52:58;;;;;;;0.30;0.30;;;;;;;19.08;16.66;93030.22;4925271;29;20257;-81
2023/11/18 08:55:41;;;;;;;0.20;0.20;;;;;;;18.92;16.41;93041.41;4942344;29;20045;-82
2023/11/18 08:58:28;;;;;;;0.30;0.30;;;;;;;18.82;15.78;93044.44;4940336;29;20075;-80
2023/11/18 09:00:55;;;;;;;;;;;;;;;18.46;15.74;93037.81;4959161;29;20086;-81
2023/11/18 09:03:27;;;;;;;0.40;0.40;;;;;;;18.29;16.67;93043.22;4952830;29;19965;-81
2023/11/18 09:06:03;;;;;;;;;;;;;;;17.76;17.38;93052.44;4937994;29;21666;-81
2023/11/18 09:08:38;;;;;;;0.32;0.32;;;;;;;18.36;15.17;93045.34;4957661;29;19914;-81
2023/11/18 09:11:06;;;;;;;0.75;0.70;;;;;;;17.11;23.25;93057.69;4957618;29;20115;-79
2023/11/18 09:13:34;;;;;;;0.40;0.40;;;;;;;16.14;23.89;93050.69;4957593;29;20110;-78
2023/11/18 09:16:02;;;;;;;0.50;0.50;;;;;;;15.13;27.71;93050.34;4924912;29;20526;-79
2023/11/18 09:18:33;;;;;;;0.52;0.43;;;;;;;15.26;24.48;93047.94;4957507;29;20114;-78
2023/11/18 09:21:00;;;;;;;0.50;0.50;;;;;;;14.63;24.88;93047.78;4940188;29;20130;-79
2023/11/18 09:23:28;;;;;;;2.22;0.60;;;;;;;14.44;25.53;93055.81;4921980;29;20050;-81
2023/11/18 09:25:54;;;;;;;0.47;0.47;;;;;;;14.43;26.48;93048.19;4938174;29;20023;-80
2023/11/18 09:28:24;;;;;;;0.57;0.57;;;;;;;13.36;26.65;93057.03;4955725;29;20487;-80
2023/11/18 09:30:53;;;;;;;0.73;0.73;;;;;;;13.61;26.20;93055.03;4939473;29;20054;-80
2023/11/18 09:33:25;;;;;;;0.70;0.70;;;;;;;14.09;25.25;93049.41;4956010;29;20047;-80
2023/11/18 09:35:58;;;;;;;0.52;0.52;;;;;;;14.35;26.09;93042.56;4956084;29;20027;-80
2023/11/18 09:38:31;;;;;;;0.60;0.60;;;;;;;13.69;31.37;93057.00;4956885;28;20047;-80
2023/11/18 09:41:03;;;;;;;0.68;0.68;;;;;;;13.60;29.76;93053.47;4959335;29;20499;-81
2023/11/18 09:43:35;;;;;;;;;;;;;;;13.71;28.60;93054.84;4952497;28;20038;-76
2023/11/18 09:46:12;;;;;;;0.63;0.63;;;;;;;13.60;28.83;93061.38;4949817;29;20405;-80
2023/11/18 09:48:59;;;;;;;0.60;0.60;;;;;;;12.97;28.66;93066.06;4953320;29;20044;-80
2023/11/18 09:51:36;;;;;;;0.60;0.60;;;;;;;13.04;28.90;93048.06;4932740;29;20035;-79
2023/11/18 09:54:10;;;;;;;1.05;0.60;;;;;;;12.63;27.81;93053.94;4956955;29;20507;-79
2023/11/18 09:57:08;;;;;;;0.60;0.60;;;;;;;12.78;30.02;93045.03;4953806;29;20039;-79
2023/11/18 09:59:54;;;;;;;1.02;0.75;;;;;;;13.23;30.75;93042.75;4948469;29;20091;-79
2023/11/18 10:02:23;;;;;;;0.70;0.70;;;;;;;12.84;27.44;93046.53;4954397;28;20071;-80
2023/11/18 10:04:56;;;;;;;0.80;0.75;;;;;;;12.89;29.88;93038.56;4953848;29;20031;-79
2023/11/18 10:07:26;;;;;;;0.65;0.65;;;;;;;12.94;34.13;93035.06;4951583;29;20538;-79
2023/11/18 10:09:57;;;;;;;1.35;0.80;;;;;;;13.20;29.67;93035.47;4948750;29;20093;-78
2023/11/18 10:12:24;;;;;;;0.52;0.52;;;;;;;13.20;34.15;93030.19;4955456;29;20095;-79
2023/11/18 10:14:53;;;;;;;0.68;0.60;;;;;;;12.14;36.67;93036.72;4955068;29;20043;-77
2023/11/18 10:17:21;;;;;;;0.85;0.70;;;;;;;11.93;36.28;93035.41;4937430;29;20031;-78
2023/11/18 10:19:59;;;;;;;0.73;0.70;;;;;;;12.65;30.45;93036.06;4956336;29;20054;-79
2023/11/18 10:22:27;;;;;;;1.08;0.88;;;;;;;12.76;35.25;93044.53;4957524;28;20042;-79
2023/11/18 10:24:54;;;;;;;0.95;0.70;;;;;;;12.96;34.35;93032.16;4957585;29;20027;-79
2023/11/18 10:27:30;;;;;;;1.00;0.90;;;;;;;13.13;33.14;93045.56;4938304;29;20086;-79
2023/11/18 10:30:18;;;;;;;0.57;0.57;;;;;;;13.50;28.26;93044.69;4938129;29;20051;-78
2023/11/18 10:33:05;;;;;;;0.68;0.65;;;;;;;13.90;28.07;93042.41;4947154;29;20470;-79
2023/11/18 10:35:33;;;;;;;0.52;0.50;;;;;;;14.34;26.30;93050.75;4952416;29;20046;-79
2023/11/18 10:38:06;;;;;;;0.57;0.57;;;;;;;14.22;25.49;93048.63;4950982;29;20358;-79
2023/11/18 10:40:37;;;;;;;0.60;0.60;;;;;;;14.13;24.34;93051.16;4955618;29;20039;-78
2023/11/18 10:43:09;;;;;;;0.70;0.70;;;;;;;13.90;25.86;93057.41;4959807;29;20476;-78
2023/11/18 10:45:38;;;;;;;;;;;;;;;13.94;25.17;93056.53;4943408;29;20488;-79
2023/11/18 10:48:08;;;;;;;0.50;0.50;;;;;;;13.57;25.35;93054.06;4956891;28;19974;-79
2023/11/18 10:50:34;;;;;;;0.70;0.70;;;;;;;13.34;26.60;93051.28;4956730;29;20043;-80
2023/11/18 10:53:01;;;;;;;0.68;0.68;;;;;;;12.78;29.09;93052.16;4956640;29;20035;-79
2023/11/18 10:55:37;;;;;;;0.60;0.60;;;;;;;12.49;27.39;93058.31;4956919;28;20032;-78
2023/11/18 10:58:04;;;;;;;0.60;0.60;;;;;;;12.32;26.04;93055.41;4943610;29;20431;-78
2023/11/18 11:00:49;;;;;;;6.22;1.30;;;;;;;12.37;27.05;93057.97;4952634;29;20050;-79
2023/11/18 11:03:16;;;;;;;1.88;0.98;;;;;;;12.78;26.91;93049.53;4955682;29;20430;-79
2023/11/18 11:05:43;;;;;;;1.42;0.80;;;;;;;12.86;25.99;93052.28;4943491;29;20034;-79
2023/11/18 11:08:13;;;;;;;0.75;0.75;;;;;;;13.69;25.59;93043.84;4959963;28;20035;-78
2023/11/18 11:10:43;;;;;;;0.73;0.60;;;;;;;14.29;25.72;93030.56;4960273;29;20031;-77
2023/11/18 11:13:11;;;;;;;0.60;0.60;;;;;;;14.77;24.99;93027.47;4960522;29;20042;-80
2023/11/18 11:15:49;;;;;;;0.50;0.50;;;;;;;15.00;22.97;93032.75;4960251;29;20028;-80
2023/11/18 11:18:27;;;;;;;0.40;0.40;;;;;;;15.45;23.76;93014.22;4944292;29;20039;-80
2023/11/18 11:21:04;;;;;;;3.00;0.90;;;;;;;15.44;27.45;93007.38;4961504;29;20337;-80
2023/11/18 11:23:43;;;;;;;0.70;0.70;;;;;;;14.49;30.76;93031.22;4962610;29;20531;-80
2023/11/18 11:26:09;;;;;;;0.63;0.63;;;;;;;14.11;33.70;93037.50;4963974;29;20046;-80
2023/11/18 11:28:57;;;;;;;0.50;0.50;;;;;;;13.60;28.65;93042.94;4963572;28;20023;-81
2023/11/18 11:31:38;;;;;;;0.65;0.65;;;;;;;13.16;24.23;93044.97;4963818;29;20051;-79
2023/11/18 11:34:07;;;;;;;0.63;0.60;;;;;;;13.39;26.09;93032.00;4954187;28;20035;-81
2023/11/18 11:36:41;;;;;;;1.20;0.60;;;;;;;13.78;27.54;93022.88;4960658;28;20043;-80
2023/11/18 11:39:14;;;;;;;0.60;0.60;;;;;;;13.70;32.67;93013.84;4959787;29;20046;-80
2023/11/18 11:41:50;;;;;;;1.00;0.90;;;;;;;13.62;33.12;93020.56;4942462;29;20090;-81
2023/11/18 11:44:19;;;;;;;1.00;0.90;;;;;;;13.64;31.47;93012.38;4959497;29;20372;-78
2023/11/18 11:46:52;;;;;;;0.70;0.70;;;;;;;13.61;30.49;93012.97;4944494;28;20191;-79
2023/11/18 11:49:21;;;;;;;0.70;0.70;;;;;;;13.86;30.33;93014.31;4945438;29;20074;-81